sensor_id;sensor_type;location;lat;lon;timestamp;temperature;humidity
52073;DHT22;38074;51.232;6.826;2022-10-13T00:02:35;22.90;45.60
52073;DHT22;38074;51.232;6.826;2022-10-13T00:09:51;22.90;45.50
52073;DHT22;38074;51.232;6.826;2022-10-13T00:17:07;22.90;45.50
52073;DHT22;38074;51.232;6.826;2022-10-13T00:24:22;22.90;45.60
52073;DHT22;38074;51.232;6.826;2022-10-13T00:31:38;22.80;45.50
52073;DHT22;38074;51.232;6.826;2022-10-13T00:38:55;22.90;45.60
52073;DHT22;38074;51.232;6.826;2022-10-13T00:46:11;22.90;45.60
52073;DHT22;38074;51.232;6.826;2022-10-13T00:53:30;22.80;45.50
52073;DHT22;38074;51.232;6.826;2022-10-13T01:00:48;22.80;45.60
52073;DHT22;38074;51.232;6.826;2022-10-13T01:08:05;22.80;45.60
52073;DHT22;38074;51.232;6.826;2022-10-13T01:15:33;22.80;45.60
52073;DHT22;38074;51.232;6.826;2022-10-13T01:30:19;22.80;45.70
52073;DHT22;38074;51.232;6.826;2022-10-13T01:37:47;22.90;45.70
52073;DHT22;38074;51.232;6.826;2022-10-13T01:45:04;22.80;46.30
52073;DHT22;38074;51.232;6.826;2022-10-13T01:52:23;22.80;45.70
52073;DHT22;38074;51.232;6.826;2022-10-13T01:59:40;22.80;45.70
52073;DHT22;38074;51.232;6.826;2022-10-13T02:07:09;22.80;45.80
52073;DHT22;38074;51.232;6.826;2022-10-13T02:14:28;22.80;45.80
52073;DHT22;38074;51.232;6.826;2022-10-13T02:21:45;22.80;45.80
52073;DHT22;38074;51.232;6.826;2022-10-13T02:29:09;22.80;45.90
52073;DHT22;38074;51.232;6.826;2022-10-13T02:36:25;22.80;45.90
52073;DHT22;38074;51.232;6.826;2022-10-13T02:43:40;22.80;45.90
52073;DHT22;38074;51.232;6.826;2022-10-13T02:50:56;22.80;45.90
52073;DHT22;38074;51.232;6.826;2022-10-13T02:58:11;22.80;45.90
52073;DHT22;38074;51.232;6.826;2022-10-13T03:05:27;22.80;46.00
52073;DHT22;38074;51.232;6.826;2022-10-13T03:12:42;22.80;45.90
52073;DHT22;38074;51.232;6.826;2022-10-13T03:19:58;22.80;46.00
52073;DHT22;38074;51.232;6.826;2022-10-13T03:27:13;22.80;46.00
52073;DHT22;38074;51.232;6.826;2022-10-13T03:34:30;22.80;46.00
52073;DHT22;38074;51.232;6.826;2022-10-13T03:41:45;22.80;46.00
52073;DHT22;38074;51.232;6.826;2022-10-13T03:49:01;22.80;46.10
52073;DHT22;38074;51.232;6.826;2022-10-13T03:56:24;22.80;46.20
52073;DHT22;38074;51.232;6.826;2022-10-13T04:03:40;22.80;46.80
52073;DHT22;38074;51.232;6.826;2022-10-13T04:11:17;22.80;46.20
52073;DHT22;38074;51.232;6.826;2022-10-13T04:18:33;22.80;46.20
52073;DHT22;38074;51.232;6.826;2022-10-13T04:25:49;22.80;46.20
52073;DHT22;38074;51.232;6.826;2022-10-13T04:33:04;22.80;46.20
52073;DHT22;38074;51.232;6.826;2022-10-13T04:40:20;22.80;46.20
52073;DHT22;38074;51.232;6.826;2022-10-13T04:47:35;22.80;46.20
52073;DHT22;38074;51.232;6.826;2022-10-13T04:54:52;22.80;46.30
52073;DHT22;38074;51.232;6.826;2022-10-13T05:02:07;22.80;46.20
52073;DHT22;38074;51.232;6.826;2022-10-13T05:09:24;22.80;46.30
52073;DHT22;38074;51.232;6.826;2022-10-13T05:16:40;22.80;46.40
52073;DHT22;38074;51.232;6.826;2022-10-13T05:23:56;22.80;46.40
52073;DHT22;38074;51.232;6.826;2022-10-13T05:31:13;22.80;46.30
52073;DHT22;38074;51.232;6.826;2022-10-13T05:38:29;22.80;46.30
52073;DHT22;38074;51.232;6.826;2022-10-13T05:45:44;22.80;46.40
52073;DHT22;38074;51.232;6.826;2022-10-13T05:53:00;22.80;46.40
52073;DHT22;38074;51.232;6.826;2022-10-13T06:00:17;22.80;46.30
52073;DHT22;38074;51.232;6.826;2022-10-13T06:07:33;22.80;46.30
52073;DHT22;38074;51.232;6.826;2022-10-13T06:14:49;22.80;46.30
52073;DHT22;38074;51.232;6.826;2022-10-13T06:22:04;22.80;46.40
52073;DHT22;38074;51.232;6.826;2022-10-13T06:29:20;22.80;46.40
52073;DHT22;38074;51.232;6.826;2022-10-13T06:36:35;22.80;46.40
52073;DHT22;38074;51.232;6.826;2022-10-13T06:43:51;22.80;46.40
52073;DHT22;38074;51.232;6.826;2022-10-13T06:51:08;22.80;46.40
52073;DHT22;38074;51.232;6.826;2022-10-13T06:58:24;22.80;46.40
52073;DHT22;38074;51.232;6.826;2022-10-13T07:05:40;22.80;46.40
52073;DHT22;38074;51.232;6.826;2022-10-13T07:12:56;22.90;46.40
52073;DHT22;38074;51.232;6.826;2022-10-13T07:20:11;22.80;46.40
52073;DHT22;38074;51.232;6.826;2022-10-13T07:27:27;22.80;46.40
52073;DHT22;38074;51.232;6.826;2022-10-13T07:34:43;22.80;46.40
52073;DHT22;38074;51.232;6.826;2022-10-13T07:41:58;22.80;46.40
52073;DHT22;38074;51.232;6.826;2022-10-13T07:49:14;22.80;46.40
52073;DHT22;38074;51.232;6.826;2022-10-13T07:56:29;22.90;46.40
52073;DHT22;38074;51.232;6.826;2022-10-13T08:03:45;22.90;46.40
52073;DHT22;38074;51.232;6.826;2022-10-13T08:11:06;22.90;46.50
52073;DHT22;38074;51.232;6.826;2022-10-13T08:18:22;22.90;46.50
52073;DHT22;38074;51.232;6.826;2022-10-13T08:25:41;22.90;46.50
52073;DHT22;38074;51.232;6.826;2022-10-13T08:32:57;22.90;46.50
52073;DHT22;38074;51.232;6.826;2022-10-13T08:40:16;22.90;46.50
52073;DHT22;38074;51.232;6.826;2022-10-13T08:47:39;22.90;46.60
52073;DHT22;38074;51.232;6.826;2022-10-13T08:54:56;22.90;46.60
52073;DHT22;38074;51.232;6.826;2022-10-13T09:02:21;22.90;46.70
52073;DHT22;38074;51.232;6.826;2022-10-13T09:09:37;22.90;46.70
52073;DHT22;38074;51.232;6.826;2022-10-13T09:16:54;22.90;46.70
52073;DHT22;38074;51.232;6.826;2022-10-13T09:24:16;22.90;46.70
52073;DHT22;38074;51.232;6.826;2022-10-13T09:31:32;22.90;46.70
52073;DHT22;38074;51.232;6.826;2022-10-13T09:39:13;22.90;46.70
52073;DHT22;38074;51.232;6.826;2022-10-13T09:46:35;22.90;46.70
52073;DHT22;38074;51.232;6.826;2022-10-13T09:53:51;22.90;46.80
52073;DHT22;38074;51.232;6.826;2022-10-13T10:01:17;22.90;46.70
52073;DHT22;38074;51.232;6.826;2022-10-13T10:08:45;22.90;46.70
52073;DHT22;38074;51.232;6.826;2022-10-13T10:23:43;23.00;46.80
52073;DHT22;38074;51.232;6.826;2022-10-13T10:38:51;23.00;46.90
52073;DHT22;38074;51.232;6.826;2022-10-13T10:46:14;23.00;46.90
52073;DHT22;38074;51.232;6.826;2022-10-13T10:53:36;23.00;46.90
52073;DHT22;38074;51.232;6.826;2022-10-13T11:01:14;23.00;46.90
52073;DHT22;38074;51.232;6.826;2022-10-13T11:08:45;23.00;47.00
52073;DHT22;38074;51.232;6.826;2022-10-13T11:16:32;23.00;47.00
52073;DHT22;38074;51.232;6.826;2022-10-13T11:23:48;23.00;47.10
52073;DHT22;38074;51.232;6.826;2022-10-13T11:38:27;23.00;47.90
52073;DHT22;38074;51.232;6.826;2022-10-13T11:53:23;23.00;47.30
52073;DHT22;38074;51.232;6.826;2022-10-13T12:08:10;23.00;47.50
52073;DHT22;38074;51.232;6.826;2022-10-13T12:15:35;23.00;47.50
52073;DHT22;38074;51.232;6.826;2022-10-13T12:22:52;23.00;47.60
52073;DHT22;38074;51.232;6.826;2022-10-13T12:30:27;23.00;47.70
52073;DHT22;38074;51.232;6.826;2022-10-13T12:37:43;23.00;47.70
52073;DHT22;38074;51.232;6.826;2022-10-13T12:44:59;23.00;47.70
52073;DHT22;38074;51.232;6.826;2022-10-13T12:52:20;23.00;47.80
52073;DHT22;38074;51.232;6.826;2022-10-13T12:59:40;23.00;47.80
52073;DHT22;38074;51.232;6.826;2022-10-13T13:07:02;23.00;47.90
52073;DHT22;38074;51.232;6.826;2022-10-13T13:14:35;23.00;48.00
52073;DHT22;38074;51.232;6.826;2022-10-13T13:21:50;23.00;48.00
52073;DHT22;38074;51.232;6.826;2022-10-13T13:29:07;23.00;48.00
52073;DHT22;38074;51.232;6.826;2022-10-13T13:36:25;23.00;48.10
52073;DHT22;38074;51.232;6.826;2022-10-13T13:43:41;23.00;48.10
52073;DHT22;38074;51.232;6.826;2022-10-13T13:50:57;23.00;48.20
52073;DHT22;38074;51.232;6.826;2022-10-13T13:58:12;23.00;48.90
52073;DHT22;38074;51.232;6.826;2022-10-13T14:05:27;23.00;48.30
52073;DHT22;38074;51.232;6.826;2022-10-13T14:12:43;23.00;48.50
52073;DHT22;38074;51.232;6.826;2022-10-13T14:19:58;23.00;48.60
52073;DHT22;38074;51.232;6.826;2022-10-13T14:27:14;23.00;48.70
52073;DHT22;38074;51.232;6.826;2022-10-13T14:34:29;23.00;48.70
52073;DHT22;38074;51.232;6.826;2022-10-13T14:41:45;23.00;48.90
52073;DHT22;38074;51.232;6.826;2022-10-13T14:49:00;23.00;48.80
52073;DHT22;38074;51.232;6.826;2022-10-13T14:56:23;23.00;49.00
52073;DHT22;38074;51.232;6.826;2022-10-13T15:03:39;23.00;49.00
52073;DHT22;38074;51.232;6.826;2022-10-13T15:10:58;23.00;49.20
52073;DHT22;38074;51.232;6.826;2022-10-13T15:18:14;23.00;49.20
52073;DHT22;38074;51.232;6.826;2022-10-13T15:25:29;23.00;49.30
52073;DHT22;38074;51.232;6.826;2022-10-13T15:32:47;23.00;49.50
52073;DHT22;38074;51.232;6.826;2022-10-13T15:40:04;23.00;49.50
52073;DHT22;38074;51.232;6.826;2022-10-13T15:47:19;23.00;49.30
52073;DHT22;38074;51.232;6.826;2022-10-13T15:54:35;23.00;49.60
52073;DHT22;38074;51.232;6.826;2022-10-13T16:01:50;23.00;49.60
52073;DHT22;38074;51.232;6.826;2022-10-13T16:09:06;23.00;49.60
52073;DHT22;38074;51.232;6.826;2022-10-13T16:16:22;23.00;49.60
52073;DHT22;38074;51.232;6.826;2022-10-13T16:23:37;23.00;49.60
52073;DHT22;38074;51.232;6.826;2022-10-13T16:30:53;23.00;49.70
52073;DHT22;38074;51.232;6.826;2022-10-13T16:38:08;23.00;49.80
52073;DHT22;38074;51.232;6.826;2022-10-13T16:45:25;23.00;49.70
52073;DHT22;38074;51.232;6.826;2022-10-13T16:52:40;23.00;49.90
52073;DHT22;38074;51.232;6.826;2022-10-13T16:59:56;23.00;50.00
52073;DHT22;38074;51.232;6.826;2022-10-13T17:07:12;23.00;50.10
52073;DHT22;38074;51.232;6.826;2022-10-13T17:14:27;23.00;50.10
52073;DHT22;38074;51.232;6.826;2022-10-13T17:21:43;23.00;50.20
52073;DHT22;38074;51.232;6.826;2022-10-13T17:36:27;22.90;50.10
52073;DHT22;38074;51.232;6.826;2022-10-13T17:43:43;22.90;50.10
52073;DHT22;38074;51.232;6.826;2022-10-13T17:51:03;22.90;50.10
52073;DHT22;38074;51.232;6.826;2022-10-13T17:58:18;22.90;50.20
52073;DHT22;38074;51.232;6.826;2022-10-13T18:05:34;22.90;50.10
52073;DHT22;38074;51.232;6.826;2022-10-13T18:12:49;22.90;50.10
52073;DHT22;38074;51.232;6.826;2022-10-13T18:20:05;22.90;50.10
52073;DHT22;38074;51.232;6.826;2022-10-13T18:27:21;22.90;50.20
52073;DHT22;38074;51.232;6.826;2022-10-13T18:34:36;23.00;50.30
52073;DHT22;38074;51.232;6.826;2022-10-13T18:41:53;22.90;50.30
52073;DHT22;38074;51.232;6.826;2022-10-13T18:49:12;22.90;50.20
52073;DHT22;38074;51.232;6.826;2022-10-13T18:56:29;22.90;50.20
52073;DHT22;38074;51.232;6.826;2022-10-13T19:03:45;22.90;50.30
52073;DHT22;38074;51.232;6.826;2022-10-13T19:11:09;22.90;50.30
52073;DHT22;38074;51.232;6.826;2022-10-13T19:18:25;22.90;50.30
52073;DHT22;38074;51.232;6.826;2022-10-13T19:25:42;22.90;50.30
52073;DHT22;38074;51.232;6.826;2022-10-13T19:32:57;22.90;50.30
52073;DHT22;38074;51.232;6.826;2022-10-13T19:40:13;23.00;50.40
52073;DHT22;38074;51.232;6.826;2022-10-13T19:47:29;22.90;50.30
52073;DHT22;38074;51.232;6.826;2022-10-13T19:54:44;22.90;50.30
52073;DHT22;38074;51.232;6.826;2022-10-13T20:02:00;22.90;50.20
52073;DHT22;38074;51.232;6.826;2022-10-13T20:09:17;22.90;50.20
52073;DHT22;38074;51.232;6.826;2022-10-13T20:16:32;22.90;50.10
52073;DHT22;38074;51.232;6.826;2022-10-13T20:23:49;22.90;50.20
52073;DHT22;38074;51.232;6.826;2022-10-13T20:31:05;22.90;50.20
52073;DHT22;38074;51.232;6.826;2022-10-13T20:38:20;22.90;50.10
52073;DHT22;38074;51.232;6.826;2022-10-13T20:45:37;22.90;50.00
52073;DHT22;38074;51.232;6.826;2022-10-13T20:52:52;22.90;50.10
52073;DHT22;38074;51.232;6.826;2022-10-13T21:00:08;22.90;50.00
52073;DHT22;38074;51.232;6.826;2022-10-13T21:07:24;22.90;50.00
52073;DHT22;38074;51.232;6.826;2022-10-13T21:14:39;22.90;50.00
52073;DHT22;38074;51.232;6.826;2022-10-13T21:21:55;22.90;50.00
52073;DHT22;38074;51.232;6.826;2022-10-13T21:29:10;22.90;50.00
52073;DHT22;38074;51.232;6.826;2022-10-13T21:36:30;22.90;50.00
52073;DHT22;38074;51.232;6.826;2022-10-13T21:43:46;22.90;50.00
52073;DHT22;38074;51.232;6.826;2022-10-13T21:51:12;22.90;50.00
52073;DHT22;38074;51.232;6.826;2022-10-13T21:58:27;22.90;50.00
52073;DHT22;38074;51.232;6.826;2022-10-13T22:05:43;22.90;49.90
52073;DHT22;38074;51.232;6.826;2022-10-13T22:12:58;22.90;50.00
52073;DHT22;38074;51.232;6.826;2022-10-13T22:20:14;22.90;50.00
52073;DHT22;38074;51.232;6.826;2022-10-13T22:27:29;22.90;50.00
52073;DHT22;38074;51.232;6.826;2022-10-13T22:34:45;22.90;50.70
52073;DHT22;38074;51.232;6.826;2022-10-13T22:42:00;22.90;50.00
52073;DHT22;38074;51.232;6.826;2022-10-13T22:49:16;22.90;50.10
52073;DHT22;38074;51.232;6.826;2022-10-13T22:56:33;22.90;50.10
52073;DHT22;38074;51.232;6.826;2022-10-13T23:03:50;22.90;50.10
52073;DHT22;38074;51.232;6.826;2022-10-13T23:11:06;22.90;50.10
52073;DHT22;38074;51.232;6.826;2022-10-13T23:18:21;22.90;50.10
52073;DHT22;38074;51.232;6.826;2022-10-13T23:25:37;22.90;50.00
52073;DHT22;38074;51.232;6.826;2022-10-13T23:32:52;22.90;50.10
52073;DHT22;38074;51.232;6.826;2022-10-13T23:40:08;22.90;50.10
52073;DHT22;38074;51.232;6.826;2022-10-13T23:47:24;22.80;50.00
52073;DHT22;38074;51.232;6.826;2022-10-13T23:54:39;22.80;50.10
